sensor_id;sensor_type;location;lat;lon;timestamp;P1;durP1;ratioP1;P2;durP2;ratioP2
6109;SDS011;3085;49.444;11.054;2023-12-07T00:01:49;18.97;;;8.00;;
6109;SDS011;3085;49.444;11.054;2023-12-07T00:04:15;11.93;;;6.90;;
6109;SDS011;3085;49.444;11.054;2023-12-07T00:06:45;19.33;;;8.23;;
6109;SDS011;3085;49.444;11.054;2023-12-07T00:09:11;19.53;;;7.40;;
6109;SDS011;3085;49.444;11.054;2023-12-07T00:11:38;15.13;;;7.60;;
6109;SDS011;3085;49.444;11.054;2023-12-07T00:14:05;20.43;;;7.47;;
6109;SDS011;3085;49.444;11.054;2023-12-07T00:16:31;18.13;;;7.70;;
6109;SDS011;3085;49.444;11.054;2023-12-07T00:18:58;20.70;;;8.37;;
6109;SDS011;3085;49.444;11.054;2023-12-07T00:21:25;22.17;;;9.40;;
6109;SDS011;3085;49.444;11.054;2023-12-07T00:23:53;15.77;;;7.87;;
6109;SDS011;3085;49.444;11.054;2023-12-07T00:26:19;15.10;;;7.63;;
6109;SDS011;3085;49.444;11.054;2023-12-07T00:28:46;19.00;;;9.60;;
6109;SDS011;3085;49.444;11.054;2023-12-07T00:31:13;12.60;;;7.00;;
6109;SDS011;3085;49.444;11.054;2023-12-07T00:33:39;26.37;;;8.83;;
6109;SDS011;3085;49.444;11.054;2023-12-07T00:36:07;26.07;;;9.80;;
6109;SDS011;3085;49.444;11.054;2023-12-07T00:38:34;20.03;;;8.23;;
6109;SDS011;3085;49.444;11.054;2023-12-07T00:41:03;18.40;;;7.27;;
6109;SDS011;3085;49.444;11.054;2023-12-07T00:43:30;13.80;;;7.63;;
6109;SDS011;3085;49.444;11.054;2023-12-07T00:45:56;15.80;;;6.77;;
6109;SDS011;3085;49.444;11.054;2023-12-07T00:48:23;16.97;;;7.70;;
6109;SDS011;3085;49.444;11.054;2023-12-07T00:50:50;18.00;;;7.73;;
6109;SDS011;3085;49.444;11.054;2023-12-07T00:53:17;16.10;;;7.27;;
6109;SDS011;3085;49.444;11.054;2023-12-07T00:55:43;12.10;;;7.33;;
6109;SDS011;3085;49.444;11.054;2023-12-07T00:58:11;14.97;;;7.93;;
6109;SDS011;3085;49.444;11.054;2023-12-07T01:00:38;17.83;;;7.07;;
6109;SDS011;3085;49.444;11.054;2023-12-07T01:03:05;13.40;;;6.50;;
6109;SDS011;3085;49.444;11.054;2023-12-07T01:05:32;14.10;;;7.43;;
6109;SDS011;3085;49.444;11.054;2023-12-07T01:07:58;20.07;;;6.80;;
6109;SDS011;3085;49.444;11.054;2023-12-07T01:10:25;15.87;;;6.47;;
6109;SDS011;3085;49.444;11.054;2023-12-07T01:12:51;17.40;;;7.53;;
6109;SDS011;3085;49.444;11.054;2023-12-07T01:15:19;15.00;;;7.30;;
6109;SDS011;3085;49.444;11.054;2023-12-07T01:17:46;16.23;;;7.20;;
6109;SDS011;3085;49.444;11.054;2023-12-07T01:20:13;15.43;;;6.47;;
6109;SDS011;3085;49.444;11.054;2023-12-07T01:22:42;13.40;;;7.30;;
6109;SDS011;3085;49.444;11.054;2023-12-07T01:25:10;13.67;;;6.87;;
6109;SDS011;3085;49.444;11.054;2023-12-07T01:27:38;17.30;;;6.23;;
6109;SDS011;3085;49.444;11.054;2023-12-07T01:30:05;17.20;;;7.00;;
6109;SDS011;3085;49.444;11.054;2023-12-07T01:32:34;10.87;;;6.63;;
6109;SDS011;3085;49.444;11.054;2023-12-07T01:35:01;17.03;;;8.03;;
6109;SDS011;3085;49.444;11.054;2023-12-07T01:37:27;16.00;;;7.37;;
6109;SDS011;3085;49.444;11.054;2023-12-07T01:39:55;13.27;;;6.33;;
6109;SDS011;3085;49.444;11.054;2023-12-07T01:42:22;15.37;;;7.50;;
6109;SDS011;3085;49.444;11.054;2023-12-07T01:44:48;16.10;;;7.70;;
6109;SDS011;3085;49.444;11.054;2023-12-07T01:47:15;14.67;;;7.70;;
6109;SDS011;3085;49.444;11.054;2023-12-07T01:49:43;14.17;;;6.30;;
6109;SDS011;3085;49.444;11.054;2023-12-07T01:52:10;14.87;;;6.57;;
6109;SDS011;3085;49.444;11.054;2023-12-07T01:54:37;14.57;;;7.30;;
6109;SDS011;3085;49.444;11.054;2023-12-07T01:57:04;16.33;;;6.80;;
6109;SDS011;3085;49.444;11.054;2023-12-07T01:59:31;16.30;;;7.00;;
6109;SDS011;3085;49.444;11.054;2023-12-07T02:01:59;14.27;;;6.67;;
6109;SDS011;3085;49.444;11.054;2023-12-07T02:04:26;13.60;;;7.07;;
6109;SDS011;3085;49.444;11.054;2023-12-07T02:06:54;18.27;;;7.80;;
6109;SDS011;3085;49.444;11.054;2023-12-07T02:09:23;19.33;;;7.57;;
6109;SDS011;3085;49.444;11.054;2023-12-07T02:11:50;17.13;;;8.67;;
6109;SDS011;3085;49.444;11.054;2023-12-07T02:14:16;14.63;;;7.47;;
6109;SDS011;3085;49.444;11.054;2023-12-07T02:16:45;14.97;;;7.27;;
6109;SDS011;3085;49.444;11.054;2023-12-07T02:19:19;15.23;;;6.77;;
6109;SDS011;3085;49.444;11.054;2023-12-07T02:21:56;13.47;;;7.73;;
6109;SDS011;3085;49.444;11.054;2023-12-07T02:24:27;21.50;;;8.73;;
6109;SDS011;3085;49.444;11.054;2023-12-07T02:27:01;17.27;;;7.30;;
6109;SDS011;3085;49.444;11.054;2023-12-07T02:29:27;12.70;;;7.47;;
6109;SDS011;3085;49.444;11.054;2023-12-07T02:31:54;19.83;;;7.83;;
6109;SDS011;3085;49.444;11.054;2023-12-07T02:34:21;18.77;;;6.93;;
6109;SDS011;3085;49.444;11.054;2023-12-07T02:36:47;18.47;;;7.60;;
6109;SDS011;3085;49.444;11.054;2023-12-07T02:39:16;17.47;;;8.67;;
6109;SDS011;3085;49.444;11.054;2023-12-07T02:41:43;17.83;;;7.67;;
6109;SDS011;3085;49.444;11.054;2023-12-07T02:44:13;15.40;;;7.67;;
6109;SDS011;3085;49.444;11.054;2023-12-07T02:46:40;17.13;;;7.63;;
6109;SDS011;3085;49.444;11.054;2023-12-07T02:49:06;19.80;;;9.33;;
6109;SDS011;3085;49.444;11.054;2023-12-07T02:51:33;10.83;;;5.60;;
6109;SDS011;3085;49.444;11.054;2023-12-07T02:54:00;18.10;;;7.03;;
6109;SDS011;3085;49.444;11.054;2023-12-07T02:56:26;15.70;;;6.50;;
6109;SDS011;3085;49.444;11.054;2023-12-07T02:58:53;14.07;;;8.10;;
6109;SDS011;3085;49.444;11.054;2023-12-07T03:01:21;14.37;;;7.23;;
6109;SDS011;3085;49.444;11.054;2023-12-07T03:03:47;13.30;;;7.07;;
6109;SDS011;3085;49.444;11.054;2023-12-07T03:06:14;16.27;;;7.57;;
6109;SDS011;3085;49.444;11.054;2023-12-07T03:08:42;18.27;;;6.30;;
6109;SDS011;3085;49.444;11.054;2023-12-07T03:11:08;9.60;;;5.40;;
6109;SDS011;3085;49.444;11.054;2023-12-07T03:13:35;17.00;;;7.40;;
6109;SDS011;3085;49.444;11.054;2023-12-07T03:16:06;19.73;;;8.40;;
6109;SDS011;3085;49.444;11.054;2023-12-07T03:18:35;15.10;;;7.10;;
6109;SDS011;3085;49.444;11.054;2023-12-07T03:21:02;14.23;;;7.07;;
6109;SDS011;3085;49.444;11.054;2023-12-07T03:23:29;17.03;;;7.30;;
6109;SDS011;3085;49.444;11.054;2023-12-07T03:25:55;17.57;;;7.17;;
6109;SDS011;3085;49.444;11.054;2023-12-07T03:28:22;14.07;;;6.27;;
6109;SDS011;3085;49.444;11.054;2023-12-07T03:30:49;15.10;;;6.70;;
6109;SDS011;3085;49.444;11.054;2023-12-07T03:33:15;16.20;;;8.10;;
6109;SDS011;3085;49.444;11.054;2023-12-07T03:35:44;21.13;;;7.53;;
6109;SDS011;3085;49.444;11.054;2023-12-07T03:38:11;22.07;;;8.40;;
6109;SDS011;3085;49.444;11.054;2023-12-07T03:40:38;17.13;;;7.87;;
6109;SDS011;3085;49.444;11.054;2023-12-07T03:43:05;21.10;;;8.60;;
6109;SDS011;3085;49.444;11.054;2023-12-07T03:45:32;22.80;;;9.20;;
6109;SDS011;3085;49.444;11.054;2023-12-07T03:48:01;16.50;;;8.33;;
6109;SDS011;3085;49.444;11.054;2023-12-07T03:50:28;22.17;;;8.60;;
6109;SDS011;3085;49.444;11.054;2023-12-07T03:52:57;18.77;;;8.50;;
6109;SDS011;3085;49.444;11.054;2023-12-07T03:55:23;18.30;;;7.27;;
6109;SDS011;3085;49.444;11.054;2023-12-07T03:57:50;26.10;;;8.63;;
6109;SDS011;3085;49.444;11.054;2023-12-07T04:00:17;21.63;;;8.67;;
6109;SDS011;3085;49.444;11.054;2023-12-07T04:02:44;15.80;;;7.47;;
6109;SDS011;3085;49.444;11.054;2023-12-07T04:05:10;15.57;;;7.70;;
6109;SDS011;3085;49.444;11.054;2023-12-07T04:07:38;14.40;;;7.77;;
6109;SDS011;3085;49.444;11.054;2023-12-07T04:10:06;21.47;;;8.13;;
6109;SDS011;3085;49.444;11.054;2023-12-07T04:12:34;19.67;;;8.33;;
6109;SDS011;3085;49.444;11.054;2023-12-07T04:15:01;18.27;;;8.47;;
6109;SDS011;3085;49.444;11.054;2023-12-07T04:17:29;17.90;;;7.77;;
6109;SDS011;3085;49.444;11.054;2023-12-07T04:19:56;19.47;;;7.40;;
6109;SDS011;3085;49.444;11.054;2023-12-07T04:22:23;18.37;;;7.90;;
6109;SDS011;3085;49.444;11.054;2023-12-07T04:24:50;21.07;;;9.63;;
6109;SDS011;3085;49.444;11.054;2023-12-07T04:27:18;20.80;;;8.53;;
6109;SDS011;3085;49.444;11.054;2023-12-07T04:29:44;16.13;;;8.33;;
6109;SDS011;3085;49.444;11.054;2023-12-07T04:32:11;19.17;;;8.67;;
6109;SDS011;3085;49.444;11.054;2023-12-07T04:34:38;14.90;;;8.03;;
6109;SDS011;3085;49.444;11.054;2023-12-07T04:37:05;22.33;;;9.47;;
6109;SDS011;3085;49.444;11.054;2023-12-07T04:39:32;19.87;;;7.60;;
6109;SDS011;3085;49.444;11.054;2023-12-07T04:41:59;20.77;;;8.77;;
6109;SDS011;3085;49.444;11.054;2023-12-07T04:44:28;14.07;;;7.57;;
6109;SDS011;3085;49.444;11.054;2023-12-07T04:46:54;19.17;;;8.20;;
6109;SDS011;3085;49.444;11.054;2023-12-07T04:49:21;19.57;;;8.20;;
6109;SDS011;3085;49.444;11.054;2023-12-07T04:51:50;17.47;;;8.27;;
6109;SDS011;3085;49.444;11.054;2023-12-07T04:54:16;19.07;;;9.00;;
6109;SDS011;3085;49.444;11.054;2023-12-07T04:56:44;15.70;;;7.87;;
6109;SDS011;3085;49.444;11.054;2023-12-07T04:59:11;19.93;;;8.77;;
6109;SDS011;3085;49.444;11.054;2023-12-07T05:01:39;22.20;;;8.87;;
6109;SDS011;3085;49.444;11.054;2023-12-07T05:04:06;20.73;;;8.70;;
6109;SDS011;3085;49.444;11.054;2023-12-07T05:06:35;19.13;;;8.60;;
6109;SDS011;3085;49.444;11.054;2023-12-07T05:09:02;18.93;;;8.43;;
6109;SDS011;3085;49.444;11.054;2023-12-07T05:11:29;20.37;;;8.33;;
6109;SDS011;3085;49.444;11.054;2023-12-07T05:13:56;23.27;;;9.37;;
6109;SDS011;3085;49.444;11.054;2023-12-07T05:16:23;14.13;;;8.47;;
6109;SDS011;3085;49.444;11.054;2023-12-07T05:18:51;22.40;;;8.23;;
6109;SDS011;3085;49.444;11.054;2023-12-07T05:21:18;23.47;;;8.70;;
6109;SDS011;3085;49.444;11.054;2023-12-07T05:23:45;16.33;;;7.90;;
6109;SDS011;3085;49.444;11.054;2023-12-07T05:26:12;23.87;;;9.87;;
6109;SDS011;3085;49.444;11.054;2023-12-07T05:28:39;18.40;;;8.30;;
6109;SDS011;3085;49.444;11.054;2023-12-07T05:31:06;20.23;;;9.37;;
6109;SDS011;3085;49.444;11.054;2023-12-07T05:33:41;16.93;;;10.53;;
6109;SDS011;3085;49.444;11.054;2023-12-07T05:36:12;18.23;;;9.10;;
6109;SDS011;3085;49.444;11.054;2023-12-07T05:38:39;20.30;;;8.77;;
6109;SDS011;3085;49.444;11.054;2023-12-07T05:41:06;17.93;;;8.33;;
6109;SDS011;3085;49.444;11.054;2023-12-07T05:43:39;20.37;;;9.00;;
6109;SDS011;3085;49.444;11.054;2023-12-07T05:46:06;23.07;;;9.53;;
6109;SDS011;3085;49.444;11.054;2023-12-07T05:48:33;18.47;;;10.03;;
6109;SDS011;3085;49.444;11.054;2023-12-07T05:51:01;21.63;;;9.87;;
6109;SDS011;3085;49.444;11.054;2023-12-07T05:53:29;22.43;;;9.27;;
6109;SDS011;3085;49.444;11.054;2023-12-07T05:55:57;23.27;;;8.60;;
6109;SDS011;3085;49.444;11.054;2023-12-07T05:58:26;18.37;;;9.83;;
6109;SDS011;3085;49.444;11.054;2023-12-07T06:00:52;19.70;;;9.90;;
6109;SDS011;3085;49.444;11.054;2023-12-07T06:03:19;20.77;;;10.20;;
6109;SDS011;3085;49.444;11.054;2023-12-07T06:05:46;32.63;;;10.60;;
6109;SDS011;3085;49.444;11.054;2023-12-07T06:08:17;27.33;;;11.03;;
6109;SDS011;3085;49.444;11.054;2023-12-07T06:10:45;26.43;;;10.50;;
6109;SDS011;3085;49.444;11.054;2023-12-07T06:13:12;22.83;;;9.93;;
6109;SDS011;3085;49.444;11.054;2023-12-07T06:15:41;21.00;;;9.83;;
6109;SDS011;3085;49.444;11.054;2023-12-07T06:18:08;19.73;;;8.00;;
6109;SDS011;3085;49.444;11.054;2023-12-07T06:20:34;24.30;;;8.60;;
6109;SDS011;3085;49.444;11.054;2023-12-07T06:23:03;18.47;;;10.47;;
6109;SDS011;3085;49.444;11.054;2023-12-07T06:25:37;18.67;;;8.70;;
6109;SDS011;3085;49.444;11.054;2023-12-07T06:28:05;24.20;;;9.20;;
6109;SDS011;3085;49.444;11.054;2023-12-07T06:30:35;23.33;;;9.70;;
6109;SDS011;3085;49.444;11.054;2023-12-07T06:33:01;25.17;;;10.10;;
6109;SDS011;3085;49.444;11.054;2023-12-07T06:35:28;22.00;;;9.53;;
6109;SDS011;3085;49.444;11.054;2023-12-07T06:37:55;20.63;;;8.47;;
6109;SDS011;3085;49.444;11.054;2023-12-07T06:40:22;22.60;;;9.77;;
6109;SDS011;3085;49.444;11.054;2023-12-07T06:42:49;21.30;;;9.10;;
6109;SDS011;3085;49.444;11.054;2023-12-07T06:45:17;20.90;;;9.70;;
6109;SDS011;3085;49.444;11.054;2023-12-07T06:47:43;20.17;;;9.63;;
6109;SDS011;3085;49.444;11.054;2023-12-07T06:50:10;20.87;;;9.63;;
6109;SDS011;3085;49.444;11.054;2023-12-07T06:52:38;21.43;;;8.73;;
6109;SDS011;3085;49.444;11.054;2023-12-07T06:55:05;26.33;;;10.40;;
6109;SDS011;3085;49.444;11.054;2023-12-07T06:57:35;24.23;;;9.63;;
6109;SDS011;3085;49.444;11.054;2023-12-07T07:00:02;22.07;;;9.50;;
6109;SDS011;3085;49.444;11.054;2023-12-07T07:02:36;20.60;;;9.10;;
6109;SDS011;3085;49.444;11.054;2023-12-07T07:05:03;25.63;;;9.07;;
6109;SDS011;3085;49.444;11.054;2023-12-07T07:07:31;18.00;;;8.80;;
6109;SDS011;3085;49.444;11.054;2023-12-07T07:09:57;28.40;;;10.57;;
6109;SDS011;3085;49.444;11.054;2023-12-07T07:12:37;24.23;;;10.43;;
6109;SDS011;3085;49.444;11.054;2023-12-07T07:15:04;25.40;;;10.70;;
6109;SDS011;3085;49.444;11.054;2023-12-07T07:17:33;22.57;;;9.57;;
6109;SDS011;3085;49.444;11.054;2023-12-07T07:20:01;37.23;;;12.30;;
6109;SDS011;3085;49.444;11.054;2023-12-07T07:22:28;22.30;;;10.00;;
6109;SDS011;3085;49.444;11.054;2023-12-07T07:24:54;25.03;;;11.53;;
6109;SDS011;3085;49.444;11.054;2023-12-07T07:27:21;32.60;;;10.97;;
6109;SDS011;3085;49.444;11.054;2023-12-07T07:29:48;30.40;;;11.20;;
6109;SDS011;3085;49.444;11.054;2023-12-07T07:32:15;26.67;;;10.47;;
6109;SDS011;3085;49.444;11.054;2023-12-07T07:34:41;22.40;;;10.67;;
6109;SDS011;3085;49.444;11.054;2023-12-07T07:37:10;30.33;;;12.20;;
6109;SDS011;3085;49.444;11.054;2023-12-07T07:39:37;24.77;;;12.23;;
6109;SDS011;3085;49.444;11.054;2023-12-07T07:42:04;25.87;;;11.40;;
6109;SDS011;3085;49.444;11.054;2023-12-07T07:44:31;25.80;;;10.73;;
6109;SDS011;3085;49.444;11.054;2023-12-07T07:46:57;25.80;;;9.77;;
6109;SDS011;3085;49.444;11.054;2023-12-07T07:49:24;30.03;;;13.10;;
6109;SDS011;3085;49.444;11.054;2023-12-07T07:51:51;26.00;;;9.83;;
6109;SDS011;3085;49.444;11.054;2023-12-07T07:54:19;26.00;;;11.27;;
6109;SDS011;3085;49.444;11.054;2023-12-07T07:56:45;25.97;;;10.93;;
6109;SDS011;3085;49.444;11.054;2023-12-07T07:59:12;30.43;;;10.93;;
6109;SDS011;3085;49.444;11.054;2023-12-07T08:01:39;26.03;;;11.50;;
6109;SDS011;3085;49.444;11.054;2023-12-07T08:04:05;24.17;;;11.03;;
6109;SDS011;3085;49.444;11.054;2023-12-07T08:06:32;22.07;;;10.23;;
6109;SDS011;3085;49.444;11.054;2023-12-07T08:08:59;32.03;;;10.40;;
6109;SDS011;3085;49.444;11.054;2023-12-07T08:11:27;28.83;;;12.37;;
6109;SDS011;3085;49.444;11.054;2023-12-07T08:13:54;21.53;;;10.53;;
6109;SDS011;3085;49.444;11.054;2023-12-07T08:16:22;32.13;;;13.33;;
6109;SDS011;3085;49.444;11.054;2023-12-07T08:18:48;26.63;;;11.27;;
6109;SDS011;3085;49.444;11.054;2023-12-07T08:21:18;25.97;;;12.07;;
6109;SDS011;3085;49.444;11.054;2023-12-07T08:23:52;23.60;;;10.83;;
6109;SDS011;3085;49.444;11.054;2023-12-07T08:26:31;34.83;;;13.87;;
6109;SDS011;3085;49.444;11.054;2023-12-07T08:29:04;22.20;;;11.40;;
6109;SDS011;3085;49.444;11.054;2023-12-07T08:31:31;28.07;;;11.33;;
6109;SDS011;3085;49.444;11.054;2023-12-07T08:33:58;32.27;;;12.70;;
6109;SDS011;3085;49.444;11.054;2023-12-07T08:36:25;29.87;;;13.30;;
6109;SDS011;3085;49.444;11.054;2023-12-07T08:38:52;34.13;;;12.00;;
6109;SDS011;3085;49.444;11.054;2023-12-07T08:41:19;27.20;;;12.00;;
6109;SDS011;3085;49.444;11.054;2023-12-07T08:43:47;25.13;;;11.10;;
6109;SDS011;3085;49.444;11.054;2023-12-07T08:46:14;26.10;;;9.90;;
6109;SDS011;3085;49.444;11.054;2023-12-07T08:48:41;31.97;;;12.83;;
6109;SDS011;3085;49.444;11.054;2023-12-07T08:51:08;37.27;;;12.97;;
6109;SDS011;3085;49.444;11.054;2023-12-07T08:53:34;32.13;;;11.97;;
6109;SDS011;3085;49.444;11.054;2023-12-07T08:56:01;22.27;;;11.60;;
6109;SDS011;3085;49.444;11.054;2023-12-07T08:58:28;25.73;;;10.40;;
6109;SDS011;3085;49.444;11.054;2023-12-07T09:00:56;28.83;;;11.73;;
6109;SDS011;3085;49.444;11.054;2023-12-07T09:03:23;37.40;;;13.47;;
6109;SDS011;3085;49.444;11.054;2023-12-07T09:05:56;40.23;;;11.37;;
6109;SDS011;3085;49.444;11.054;2023-12-07T09:08:23;34.50;;;13.40;;
6109;SDS011;3085;49.444;11.054;2023-12-07T09:10:50;28.10;;;13.57;;
6109;SDS011;3085;49.444;11.054;2023-12-07T09:13:16;23.90;;;10.87;;
6109;SDS011;3085;49.444;11.054;2023-12-07T09:15:43;31.23;;;11.30;;
6109;SDS011;3085;49.444;11.054;2023-12-07T09:18:11;29.10;;;13.03;;
6109;SDS011;3085;49.444;11.054;2023-12-07T09:20:39;31.37;;;11.37;;
6109;SDS011;3085;49.444;11.054;2023-12-07T09:23:10;32.40;;;13.23;;
6109;SDS011;3085;49.444;11.054;2023-12-07T09:25:37;29.37;;;12.93;;
6109;SDS011;3085;49.444;11.054;2023-12-07T09:28:05;23.70;;;11.23;;
6109;SDS011;3085;49.444;11.054;2023-12-07T09:30:33;27.67;;;11.27;;
6109;SDS011;3085;49.444;11.054;2023-12-07T09:33:00;23.13;;;10.77;;
6109;SDS011;3085;49.444;11.054;2023-12-07T09:35:30;22.97;;;10.63;;
6109;SDS011;3085;49.444;11.054;2023-12-07T09:37:59;27.73;;;12.07;;
6109;SDS011;3085;49.444;11.054;2023-12-07T09:40:25;26.60;;;12.10;;
6109;SDS011;3085;49.444;11.054;2023-12-07T09:42:53;31.47;;;11.17;;
6109;SDS011;3085;49.444;11.054;2023-12-07T09:45:20;33.20;;;11.70;;
6109;SDS011;3085;49.444;11.054;2023-12-07T09:47:47;25.80;;;11.40;;
6109;SDS011;3085;49.444;11.054;2023-12-07T09:50:15;30.87;;;11.60;;
6109;SDS011;3085;49.444;11.054;2023-12-07T09:52:47;30.30;;;13.00;;
6109;SDS011;3085;49.444;11.054;2023-12-07T09:55:14;29.23;;;12.00;;
6109;SDS011;3085;49.444;11.054;2023-12-07T09:57:42;30.20;;;12.63;;
6109;SDS011;3085;49.444;11.054;2023-12-07T10:00:10;24.30;;;11.20;;
6109;SDS011;3085;49.444;11.054;2023-12-07T10:02:39;25.50;;;10.00;;
6109;SDS011;3085;49.444;11.054;2023-12-07T10:05:08;22.60;;;11.30;;
6109;SDS011;3085;49.444;11.054;2023-12-07T10:07:36;25.30;;;11.40;;
6109;SDS011;3085;49.444;11.054;2023-12-07T10:10:07;26.77;;;11.87;;
6109;SDS011;3085;49.444;11.054;2023-12-07T10:12:40;26.83;;;11.17;;
6109;SDS011;3085;49.444;11.054;2023-12-07T10:15:11;28.97;;;12.93;;
6109;SDS011;3085;49.444;11.054;2023-12-07T10:17:45;29.03;;;11.47;;
6109;SDS011;3085;49.444;11.054;2023-12-07T10:20:14;23.50;;;10.83;;
6109;SDS011;3085;49.444;11.054;2023-12-07T10:22:41;35.50;;;13.10;;
6109;SDS011;3085;49.444;11.054;2023-12-07T10:25:10;23.20;;;11.30;;
6109;SDS011;3085;49.444;11.054;2023-12-07T10:27:38;24.43;;;10.97;;
6109;SDS011;3085;49.444;11.054;2023-12-07T10:30:08;27.30;;;10.80;;
6109;SDS011;3085;49.444;11.054;2023-12-07T10:32:36;26.80;;;11.27;;
6109;SDS011;3085;49.444;11.054;2023-12-07T10:35:06;32.47;;;10.00;;
6109;SDS011;3085;49.444;11.054;2023-12-07T10:37:33;28.67;;;9.53;;
6109;SDS011;3085;49.444;11.054;2023-12-07T10:40:00;29.33;;;11.97;;
6109;SDS011;3085;49.444;11.054;2023-12-07T10:42:30;33.30;;;12.17;;
6109;SDS011;3085;49.444;11.054;2023-12-07T10:45:02;22.37;;;10.50;;
6109;SDS011;3085;49.444;11.054;2023-12-07T10:47:31;23.60;;;9.50;;
6109;SDS011;3085;49.444;11.054;2023-12-07T10:50:00;27.83;;;11.27;;
6109;SDS011;3085;49.444;11.054;2023-12-07T10:52:29;28.23;;;11.27;;
6109;SDS011;3085;49.444;11.054;2023-12-07T10:55:02;23.37;;;10.50;;
6109;SDS011;3085;49.444;11.054;2023-12-07T10:57:32;26.90;;;12.37;;
6109;SDS011;3085;49.444;11.054;2023-12-07T11:00:02;22.00;;;11.33;;
6109;SDS011;3085;49.444;11.054;2023-12-07T11:02:30;25.53;;;11.67;;
6109;SDS011;3085;49.444;11.054;2023-12-07T11:05:03;26.60;;;9.70;;
6109;SDS011;3085;49.444;11.054;2023-12-07T11:07:34;22.37;;;10.90;;
6109;SDS011;3085;49.444;11.054;2023-12-07T11:10:21;27.40;;;10.17;;
6109;SDS011;3085;49.444;11.054;2023-12-07T11:12:56;31.80;;;12.37;;
6109;SDS011;3085;49.444;11.054;2023-12-07T11:15:31;21.20;;;10.23;;
6109;SDS011;3085;49.444;11.054;2023-12-07T11:17:59;26.57;;;11.67;;
6109;SDS011;3085;49.444;11.054;2023-12-07T11:20:32;23.03;;;11.03;;
6109;SDS011;3085;49.444;11.054;2023-12-07T11:23:06;27.33;;;11.67;;
6109;SDS011;3085;49.444;11.054;2023-12-07T11:25:33;28.10;;;11.10;;
6109;SDS011;3085;49.444;11.054;2023-12-07T11:28:02;25.63;;;10.43;;
6109;SDS011;3085;49.444;11.054;2023-12-07T11:30:30;23.90;;;10.60;;
6109;SDS011;3085;49.444;11.054;2023-12-07T11:32:58;29.23;;;10.80;;
6109;SDS011;3085;49.444;11.054;2023-12-07T11:35:26;30.93;;;10.40;;
6109;SDS011;3085;49.444;11.054;2023-12-07T11:38:08;24.80;;;11.60;;
6109;SDS011;3085;49.444;11.054;2023-12-07T11:40:44;20.17;;;9.37;;
6109;SDS011;3085;49.444;11.054;2023-12-07T11:43:17;19.27;;;8.73;;
6109;SDS011;3085;49.444;11.054;2023-12-07T11:45:56;20.80;;;9.80;;
6109;SDS011;3085;49.444;11.054;2023-12-07T11:48:23;27.47;;;12.00;;
6109;SDS011;3085;49.444;11.054;2023-12-07T11:50:53;26.90;;;11.57;;
6109;SDS011;3085;49.444;11.054;2023-12-07T11:53:22;20.20;;;9.60;;
6109;SDS011;3085;49.444;11.054;2023-12-07T11:55:51;28.27;;;10.17;;
6109;SDS011;3085;49.444;11.054;2023-12-07T11:58:26;20.63;;;9.70;;
6109;SDS011;3085;49.444;11.054;2023-12-07T12:00:55;18.47;;;8.43;;
6109;SDS011;3085;49.444;11.054;2023-12-07T12:03:27;22.43;;;8.70;;
6109;SDS011;3085;49.444;11.054;2023-12-07T12:06:03;15.23;;;7.20;;
6109;SDS011;3085;49.444;11.054;2023-12-07T12:08:33;24.23;;;9.07;;
6109;SDS011;3085;49.444;11.054;2023-12-07T12:11:00;19.90;;;9.67;;
6109;SDS011;3085;49.444;11.054;2023-12-07T12:13:33;21.10;;;9.80;;
6109;SDS011;3085;49.444;11.054;2023-12-07T12:16:01;20.53;;;11.60;;
6109;SDS011;3085;49.444;11.054;2023-12-07T12:18:29;21.83;;;10.17;;
6109;SDS011;3085;49.444;11.054;2023-12-07T12:20:56;22.80;;;8.30;;
6109;SDS011;3085;49.444;11.054;2023-12-07T12:23:24;18.77;;;7.70;;
6109;SDS011;3085;49.444;11.054;2023-12-07T12:25:50;20.30;;;9.10;;
6109;SDS011;3085;49.444;11.054;2023-12-07T12:28:18;13.20;;;7.27;;
6109;SDS011;3085;49.444;11.054;2023-12-07T12:30:52;16.80;;;7.80;;
6109;SDS011;3085;49.444;11.054;2023-12-07T12:33:20;17.97;;;8.83;;
6109;SDS011;3085;49.444;11.054;2023-12-07T12:35:58;20.53;;;8.80;;
6109;SDS011;3085;49.444;11.054;2023-12-07T12:38:28;23.27;;;9.93;;
6109;SDS011;3085;49.444;11.054;2023-12-07T12:40:55;17.77;;;9.47;;
6109;SDS011;3085;49.444;11.054;2023-12-07T12:43:22;17.50;;;8.83;;
6109;SDS011;3085;49.444;11.054;2023-12-07T12:45:49;17.00;;;8.60;;
6109;SDS011;3085;49.444;11.054;2023-12-07T12:48:19;14.87;;;7.90;;
6109;SDS011;3085;49.444;11.054;2023-12-07T12:50:46;13.20;;;7.17;;
6109;SDS011;3085;49.444;11.054;2023-12-07T12:53:13;17.93;;;7.30;;
6109;SDS011;3085;49.444;11.054;2023-12-07T12:55:41;20.20;;;7.57;;
6109;SDS011;3085;49.444;11.054;2023-12-07T12:58:08;13.80;;;7.30;;
6109;SDS011;3085;49.444;11.054;2023-12-07T13:00:37;23.67;;;7.43;;
6109;SDS011;3085;49.444;11.054;2023-12-07T13:03:06;13.03;;;6.53;;
6109;SDS011;3085;49.444;11.054;2023-12-07T13:05:33;13.13;;;6.20;;
6109;SDS011;3085;49.444;11.054;2023-12-07T13:08:01;13.50;;;6.63;;
6109;SDS011;3085;49.444;11.054;2023-12-07T13:10:28;20.07;;;7.90;;
6109;SDS011;3085;49.444;11.054;2023-12-07T13:12:56;14.17;;;6.93;;
6109;SDS011;3085;49.444;11.054;2023-12-07T13:15:23;12.87;;;7.17;;
6109;SDS011;3085;49.444;11.054;2023-12-07T13:17:50;20.17;;;6.73;;
6109;SDS011;3085;49.444;11.054;2023-12-07T13:20:18;17.13;;;8.40;;
6109;SDS011;3085;49.444;11.054;2023-12-07T13:22:45;15.30;;;8.03;;
6109;SDS011;3085;49.444;11.054;2023-12-07T13:25:12;24.07;;;8.03;;
6109;SDS011;3085;49.444;11.054;2023-12-07T13:27:40;20.80;;;6.93;;
6109;SDS011;3085;49.444;11.054;2023-12-07T13:30:08;15.47;;;7.00;;
6109;SDS011;3085;49.444;11.054;2023-12-07T13:32:35;18.63;;;7.40;;
6109;SDS011;3085;49.444;11.054;2023-12-07T13:35:03;18.50;;;7.47;;
6109;SDS011;3085;49.444;11.054;2023-12-07T13:37:32;12.27;;;6.90;;
6109;SDS011;3085;49.444;11.054;2023-12-07T13:39:59;18.13;;;7.83;;
6109;SDS011;3085;49.444;11.054;2023-12-07T13:42:29;17.63;;;7.13;;
6109;SDS011;3085;49.444;11.054;2023-12-07T13:44:58;17.13;;;6.73;;
6109;SDS011;3085;49.444;11.054;2023-12-07T13:47:25;14.67;;;7.30;;
6109;SDS011;3085;49.444;11.054;2023-12-07T13:49:56;11.50;;;6.90;;
6109;SDS011;3085;49.444;11.054;2023-12-07T13:52:23;17.60;;;8.60;;
6109;SDS011;3085;49.444;11.054;2023-12-07T13:54:51;13.57;;;6.37;;
6109;SDS011;3085;49.444;11.054;2023-12-07T13:57:18;14.57;;;7.60;;
6109;SDS011;3085;49.444;11.054;2023-12-07T13:59:45;16.37;;;8.17;;
6109;SDS011;3085;49.444;11.054;2023-12-07T14:02:12;15.63;;;7.40;;
6109;SDS011;3085;49.444;11.054;2023-12-07T14:04:40;15.77;;;7.60;;
6109;SDS011;3085;49.444;11.054;2023-12-07T14:07:07;13.13;;;6.30;;
6109;SDS011;3085;49.444;11.054;2023-12-07T14:09:35;17.13;;;6.47;;
6109;SDS011;3085;49.444;11.054;2023-12-07T14:12:04;26.30;;;7.27;;
6109;SDS011;3085;49.444;11.054;2023-12-07T14:14:31;23.70;;;8.40;;
6109;SDS011;3085;49.444;11.054;2023-12-07T14:16:59;18.47;;;7.70;;
6109;SDS011;3085;49.444;11.054;2023-12-07T14:19:26;16.97;;;8.70;;
6109;SDS011;3085;49.444;11.054;2023-12-07T14:21:53;12.00;;;6.70;;
6109;SDS011;3085;49.444;11.054;2023-12-07T14:24:21;12.63;;;6.60;;
6109;SDS011;3085;49.444;11.054;2023-12-07T14:26:48;11.30;;;6.60;;
6109;SDS011;3085;49.444;11.054;2023-12-07T14:29:16;11.73;;;6.13;;
6109;SDS011;3085;49.444;11.054;2023-12-07T14:31:45;12.93;;;5.90;;
6109;SDS011;3085;49.444;11.054;2023-12-07T14:34:14;8.80;;;5.60;;
6109;SDS011;3085;49.444;11.054;2023-12-07T14:36:40;14.33;;;6.07;;
6109;SDS011;3085;49.444;11.054;2023-12-07T14:39:09;12.93;;;6.40;;
6109;SDS011;3085;49.444;11.054;2023-12-07T14:41:40;12.60;;;6.17;;
6109;SDS011;3085;49.444;11.054;2023-12-07T14:44:07;12.27;;;6.57;;
6109;SDS011;3085;49.444;11.054;2023-12-07T14:46:35;25.80;;;7.43;;
6109;SDS011;3085;49.444;11.054;2023-12-07T14:49:02;9.30;;;5.70;;